सभी
Ivanhoe Airport (Ivanhoe, New South Wales) YIVO मौसम
|
Ivanhoe, New South Wales (YIVO)
स्वच्छ आकाश
तेज हवाएं |
|
23 °C |
YIVO Terminal Area Forecast
| Here is the undecoded forecast: 2026/05/02 18:55 YIVO 021855Z 0220/0308 36014KT 9999 -SHRA NSC FM030200 36010KT 9999 -RA SCT012 TEMPO 0302/0308 4000 RA BKN010 PROB30 TEMPO 0220/0308 VRB30G40KT 4000 TSRA BKN012 SCT080CB RMK T 21 23 26 19 Q 1012 1014 1014 1014 |
Recent YIVO METAR history
| Date | Time (AEST) | Flight Rules | Wind Dir. | Speed | Type | Height AGL (ft) | Visibility | Temp (°C) | Temp (°F) | Dew Point (°C) | Dew Point (°F) | Rel. Humid. | Pressure | Density Altitude | Remarks |
|---|---|---|---|---|---|---|---|---|---|---|---|---|---|---|---|
| 03-मई | 09:00 | n/a | 360° | 12 kt | Missing | 23° | 73° | 13° | 55° | 53% | 1014 mb | 1,267 ft | |||
| 03-मई | 08:00 | n/a | 20° | 12 kt | Missing | 21° | 69° | 12° | 53° | 56% | 1014 mb | 1,027 ft | |||
| 03-मई | 07:00 | n/a | 30° | 7 kt | Missing | 20° | 68° | 12° | 53° | 60% | 1013 mb | 936 ft | |||
| 03-मई | 06:00 | n/a | 340° | 1 kt | Missing | 20° | 68° | 13° | 55° | 64% | 1013 mb | 936 ft | |||
| 03-मई | 05:00 | n/a | 10° | 9 kt | Missing | 20° | 68° | 12° | 53° | 60% | 1013 mb | 936 ft | |||
| 03-मई | 04:00 | n/a | 20° | 9 kt | Missing | 22° | 71° | 9° | 48° | 43% | 1013 mb | 1,176 ft | |||
| 03-मई | 03:00 | n/a | 10° | 7 kt | Missing | 22° | 71° | 9° | 48° | 43% | 1013 mb | 1,176 ft | |||
| 03-मई | 02:00 | n/a | 10° | 5 kt | Missing | 21° | 69° | 10° | 50° | 49% | 1013 mb | 1,056 ft | |||
| 03-मई | 01:00 | n/a | 30° | 11 kt | Missing | 23° | 73° | 8° | 46° | 38% | 1013 mb | 1,296 ft | |||
| 03-मई | 00:00 | n/a | 30° | 11 kt | Missing | 23° | 73° | 8° | 46° | 38% | 1014 mb | 1,267 ft | |||
| 02-मई | 23:00 | n/a | 40° | 11 kt | Missing | 23° | 73° | 8° | 46° | 38% | 1014 mb | 1,267 ft | |||
| 02-मई | 22:00 | n/a | 30° | 8 kt | Missing | 23° | 73° | 9° | 48° | 41% | 1014 mb | 1,267 ft | |||
| 02-मई | 21:00 | n/a | 30° | 7 kt | Missing | 24° | 75° | 7° | 44° | 34% | 1015 mb | 1,357 ft | |||
| 02-मई | 20:00 | n/a | 40° | 7 kt | Missing | 25° | 77° | 6° | 42° | 30% | 1015 mb | 1,477 ft | |||
| 02-मई | 19:00 | n/a | 40° | 6 kt | Missing | 25° | 77° | 7° | 44° | 32% | 1014 mb | 1,507 ft | |||
| 02-मई | 18:00 | n/a | 20° | 7 kt | Missing | 26° | 78° | 7° | 44° | 30% | 1014 mb | 1,627 ft | |||
| 02-मई | 17:00 | n/a | 360° | 9 kt | Missing | 27° | 80° | 7° | 44° | 28% | 1014 mb | 1,747 ft | |||
| 02-मई | 16:00 | n/a | 10° | 10 kt | Missing | 27° | 80° | 8° | 46° | 30% | 1014 mb | 1,747 ft | |||
| 02-मई | 15:00 | n/a | 360° | 14 kt | Missing | 28° | 82° | 8° | 46° | 28% | 1014 mb | 1,867 ft | |||
| 02-मई | 14:00 | n/a | 360° | 13 kt | Missing | 28° | 82° | 8° | 46° | 28% | 1015 mb | 1,837 ft | |||
| 02-मई | 13:00 | n/a | 10° | 13 kt | Missing | 27° | 80° | 8° | 46° | 30% | 1015 mb | 1,717 ft | |||
| 02-मई | 12:00 | n/a | 360° | 17 kt | Missing | 26° | 78° | 7° | 44° | 30% | 1017 mb | 1,538 ft | |||
| 02-मई | 11:00 | n/a | 30° | 15 kt | Missing | 25° | 77° | 6° | 42° | 30% | 1018 mb | 1,388 ft | |||
| 02-मई | 10:00 | n/a | 30° | 14 kt | Missing | 22° | 71° | 6° | 42° | 35% | 1018 mb | 1,028 ft |
लॉगिन
| Your browser is unsupported. अपना ब्राऊजर अपग्रेड करें |
